createdAt,value
2023-03-02T00:02:22.754Z,9.20
2023-03-02T00:05:33.038Z,8.80
2023-03-02T00:08:41.502Z,9.40
2023-03-02T00:11:49.595Z,9.30
2023-03-02T00:14:57.745Z,9.10
2023-03-02T00:18:05.803Z,8.50
2023-03-02T00:21:13.945Z,9.80
2023-03-02T00:24:22.025Z,9.20
2023-03-02T00:27:30.528Z,9.00
2023-03-02T00:30:38.557Z,9.20
2023-03-02T00:33:46.461Z,9.50
2023-03-02T00:36:54.510Z,9.00
2023-03-02T00:40:02.735Z,8.60
2023-03-02T00:43:10.558Z,9.00
2023-03-02T00:46:22.585Z,9.00
2023-03-02T00:49:30.756Z,8.10
2023-03-02T00:52:38.769Z,8.90
2023-03-02T00:55:56.239Z,8.40
2023-03-02T00:59:26.524Z,8.50
2023-03-02T01:02:34.824Z,7.50
2023-03-02T01:05:42.776Z,7.90
2023-03-02T01:08:51.154Z,7.20
2023-03-02T01:11:59.412Z,8.20
2023-03-02T01:15:12.642Z,8.50
2023-03-02T01:18:20.438Z,8.10
2023-03-02T01:21:28.429Z,8.10
2023-03-02T01:24:36.507Z,7.70
2023-03-02T01:27:44.601Z,7.10
2023-03-02T01:30:54.518Z,7.10
2023-03-02T01:37:08.997Z,6.40
2023-03-02T01:40:18.615Z,7.50
2023-03-02T01:43:29.364Z,7.90
2023-03-02T01:46:37.549Z,8.30
2023-03-02T01:49:51.054Z,8.60
2023-03-02T01:53:00.451Z,8.00
2023-03-02T01:56:09.835Z,7.20
2023-03-02T01:59:22.522Z,7.30
2023-03-02T02:02:31.496Z,7.30
2023-03-02T02:05:42.265Z,8.20
2023-03-02T02:08:52.531Z,8.20
2023-03-02T02:12:00.797Z,7.70
2023-03-02T02:15:10.943Z,7.80
2023-03-02T02:21:26.996Z,6.90
2023-03-02T02:24:42.697Z,7.50
2023-03-02T02:27:51.537Z,8.30
2023-03-02T02:31:15.563Z,8.00
2023-03-02T02:34:30.544Z,7.30
2023-03-02T02:37:43.293Z,7.50
2023-03-02T02:40:58.139Z,7.20
2023-03-02T02:44:06.387Z,8.70
2023-03-02T02:47:21.986Z,8.00
2023-03-02T02:50:34.049Z,8.30
2023-03-02T02:53:49.777Z,7.90
2023-03-02T02:57:00.816Z,8.20
2023-03-02T03:00:17.373Z,8.30
2023-03-02T03:03:32.815Z,8.00
2023-03-02T03:06:50.658Z,8.90
2023-03-02T03:10:06.582Z,8.30
2023-03-02T03:13:15.211Z,8.80
2023-03-02T03:16:25.389Z,8.80
2023-03-02T03:19:35.597Z,7.10
2023-03-02T03:22:43.636Z,7.50
2023-03-02T03:25:51.683Z,7.00
2023-03-02T03:28:59.864Z,7.40
2023-03-02T03:32:08.944Z,7.90
2023-03-02T03:35:17.164Z,8.20
2023-03-02T03:38:24.999Z,8.20
2023-03-02T03:41:32.788Z,7.20
2023-03-02T03:44:41.074Z,7.30
2023-03-02T03:47:48.810Z,7.40
2023-03-02T03:50:56.531Z,9.80
2023-03-02T03:54:04.910Z,8.60
2023-03-02T03:57:12.686Z,7.80
2023-03-02T04:00:22.733Z,7.70
2023-03-02T04:03:31.013Z,7.10
2023-03-02T04:06:39.188Z,7.90
2023-03-02T04:09:47.241Z,8.30
2023-03-02T04:12:55.488Z,8.10
2023-03-02T04:16:03.396Z,7.50
2023-03-02T04:19:12.525Z,8.40
2023-03-02T04:22:21.271Z,8.70
2023-03-02T04:25:32.260Z,8.40
2023-03-02T04:28:40.435Z,8.20
2023-03-02T04:31:49.297Z,8.60
2023-03-02T04:34:57.494Z,8.50
2023-03-02T04:38:05.618Z,8.50
2023-03-02T04:41:13.887Z,8.40
2023-03-02T04:44:22.764Z,8.10
2023-03-02T04:47:30.559Z,8.20
2023-03-02T04:50:38.662Z,7.70
2023-03-02T04:53:46.594Z,7.80
2023-03-02T04:56:55.225Z,7.00
2023-03-02T05:00:05.041Z,6.60
2023-03-02T05:06:21.880Z,5.90
2023-03-02T05:09:31.012Z,5.80
2023-03-02T05:12:54.720Z,5.90
2023-03-02T05:16:02.908Z,6.20
2023-03-02T05:19:13.300Z,5.90
2023-03-02T05:22:21.340Z,6.20
2023-03-02T05:25:31.138Z,6.70
2023-03-02T05:28:40.272Z,6.80
2023-03-02T05:31:50.087Z,5.70
2023-03-02T05:34:58.261Z,5.50
2023-03-02T05:38:06.311Z,5.80
2023-03-02T05:41:14.234Z,5.60
2023-03-02T05:44:22.416Z,5.30
2023-03-02T05:47:30.224Z,5.30
2023-03-02T05:50:38.180Z,6.50
2023-03-02T05:53:46.243Z,6.40
2023-03-02T05:56:54.655Z,8.00
2023-03-02T06:00:02.508Z,7.90
2023-03-02T06:03:10.530Z,7.20
2023-03-02T06:06:18.701Z,7.10
2023-03-02T06:09:26.708Z,7.50
2023-03-02T06:12:34.567Z,7.10
2023-03-02T06:15:43.854Z,6.50
2023-03-02T06:18:51.859Z,6.10
2023-03-02T06:21:59.953Z,5.90
2023-03-02T06:25:10.420Z,6.80
2023-03-02T06:28:19.912Z,6.30
2023-03-02T06:31:28.207Z,5.30
2023-03-02T06:34:36.260Z,5.30
2023-03-02T06:37:45.039Z,5.60
2023-03-02T06:40:52.822Z,6.80
2023-03-02T06:44:01.068Z,8.00
2023-03-02T06:47:09.146Z,7.60
2023-03-02T06:50:17.274Z,7.60
2023-03-02T06:53:25.216Z,9.80
2023-03-02T06:56:33.764Z,9.20
2023-03-02T06:59:41.836Z,8.30
2023-03-02T07:02:50.465Z,9.50
2023-03-02T07:05:58.460Z,9.30
2023-03-02T07:09:07.619Z,9.20
2023-03-02T07:12:15.838Z,8.70
2023-03-02T07:15:24.192Z,9.30
2023-03-02T07:18:32.072Z,8.10
2023-03-02T07:21:39.743Z,7.90
2023-03-02T07:24:47.722Z,7.60
2023-03-02T07:27:55.894Z,9.20
2023-03-02T07:31:03.594Z,7.40
2023-03-02T07:34:11.463Z,7.80
2023-03-02T07:37:19.339Z,7.40
2023-03-02T07:40:27.541Z,7.90
2023-03-02T07:43:36.721Z,6.60
2023-03-02T07:46:44.596Z,7.80
2023-03-02T07:49:52.466Z,7.30
2023-03-02T07:53:00.495Z,4.90
2023-03-02T07:56:14.068Z,4.10
2023-03-02T07:59:22.332Z,4.50
2023-03-02T08:02:30.939Z,3.80
2023-03-02T08:05:39.062Z,4.80
2023-03-02T08:08:47.548Z,4.10
2023-03-02T08:11:55.308Z,4.00
2023-03-02T08:15:04.901Z,3.50
2023-03-02T08:18:13.223Z,3.60
2023-03-02T08:21:24.165Z,3.70
2023-03-02T08:24:32.061Z,3.90
2023-03-02T08:27:40.358Z,3.50
2023-03-02T08:30:55.592Z,4.00
2023-03-02T08:34:03.339Z,4.00
2023-03-02T08:37:11.885Z,4.10
2023-03-02T08:40:20.413Z,3.30
2023-03-02T08:43:29.202Z,4.00
2023-03-02T08:46:37.069Z,3.50
2023-03-02T08:49:46.894Z,3.80
2023-03-02T08:52:58.268Z,4.20
2023-03-02T08:56:08.789Z,3.90
2023-03-02T08:59:18.390Z,3.80
2023-03-02T09:02:26.608Z,4.10
2023-03-02T09:05:34.686Z,3.80
2023-03-02T09:08:42.956Z,4.40
2023-03-02T09:11:50.659Z,4.50
2023-03-02T09:14:58.878Z,4.10
2023-03-02T09:18:07.024Z,3.80
2023-03-02T09:21:15.236Z,4.00
2023-03-02T09:24:23.119Z,3.90
2023-03-02T09:27:31.166Z,4.00
2023-03-02T09:30:39.150Z,4.00
2023-03-02T09:33:47.390Z,4.10
2023-03-02T09:36:55.427Z,4.50
2023-03-02T09:40:03.254Z,4.60
2023-03-02T09:43:32.961Z,4.50
2023-03-02T09:46:48.248Z,4.70
2023-03-02T09:50:12.945Z,4.60
2023-03-02T09:53:44.074Z,5.00
2023-03-02T09:56:57.993Z,4.70
2023-03-02T10:00:19.553Z,3.50
2023-03-02T10:03:37.463Z,4.70
2023-03-02T10:06:45.387Z,4.30
2023-03-02T10:09:53.485Z,4.90
2023-03-02T10:13:23.904Z,4.40
2023-03-02T10:16:38.666Z,4.70
2023-03-02T10:19:54.605Z,4.70
2023-03-02T10:23:16.644Z,4.80
2023-03-02T10:26:40.778Z,4.70
2023-03-02T10:30:06.499Z,5.00
2023-03-02T10:33:20.442Z,4.60
2023-03-02T10:36:33.049Z,4.80
2023-03-02T10:39:41.109Z,5.10
2023-03-02T10:42:50.081Z,4.90
2023-03-02T10:46:07.557Z,5.10
2023-03-02T10:49:32.782Z,4.20
2023-03-02T10:52:59.589Z,4.90
2023-03-02T10:56:23.049Z,5.30
2023-03-02T10:59:49.017Z,5.10
2023-03-02T11:03:00.480Z,5.10
2023-03-02T11:06:23.179Z,5.50
2023-03-02T11:09:31.475Z,5.00
2023-03-02T11:12:46.369Z,5.30
2023-03-02T11:15:59.823Z,5.40
2023-03-02T11:19:16.059Z,5.40
2023-03-02T11:22:34.520Z,5.10
2023-03-02T11:25:51.177Z,6.20
2023-03-02T11:29:08.303Z,6.00
2023-03-02T11:32:23.820Z,6.00
2023-03-02T11:35:40.993Z,5.90
2023-03-02T11:38:55.066Z,6.10
2023-03-02T11:42:02.963Z,5.60
2023-03-02T11:45:25.153Z,5.60
2023-03-02T11:48:39.396Z,5.90
2023-03-02T11:51:59.227Z,5.70
2023-03-02T11:55:18.165Z,5.70
2023-03-02T11:58:29.875Z,5.80
2023-03-02T12:01:40.688Z,5.10
2023-03-02T12:04:50.397Z,5.50
2023-03-02T12:08:07.900Z,5.00
2023-03-02T12:11:38.615Z,5.20
2023-03-02T12:14:47.278Z,5.50
2023-03-02T12:17:56.404Z,4.90
2023-03-02T12:21:09.436Z,5.20
2023-03-02T12:24:31.493Z,5.00
2023-03-02T12:27:44.115Z,5.40
2023-03-02T12:31:09.454Z,5.60
2023-03-02T12:34:37.126Z,5.20
2023-03-02T12:37:53.805Z,5.80
2023-03-02T12:41:22.407Z,4.50
2023-03-02T12:44:51.736Z,5.20
2023-03-02T12:48:20.190Z,5.00
2023-03-02T12:51:31.863Z,4.80
2023-03-02T12:54:40.596Z,4.90
2023-03-02T12:57:55.533Z,5.20
2023-03-02T13:01:06.643Z,5.00
2023-03-02T13:04:26.938Z,5.30
2023-03-02T13:07:43.185Z,5.40
2023-03-02T13:10:57.445Z,5.70
2023-03-02T13:14:26.393Z,5.20
2023-03-02T13:17:35.605Z,5.40
2023-03-02T13:20:44.357Z,5.70
2023-03-02T13:23:54.627Z,5.50
2023-03-02T13:27:08.185Z,6.10
2023-03-02T13:30:30.163Z,5.60
2023-03-02T13:33:46.448Z,5.60
2023-03-02T13:36:55.010Z,5.60
2023-03-02T13:40:09.147Z,5.70
2023-03-02T13:43:38.431Z,5.40
2023-03-02T13:46:46.922Z,5.70
2023-03-02T13:49:55.994Z,5.90
2023-03-02T13:53:08.657Z,6.40
2023-03-02T13:56:20.231Z,5.20
2023-03-02T13:59:30.269Z,5.80
2023-03-02T14:02:39.421Z,6.20
2023-03-02T14:05:47.702Z,5.90
2023-03-02T14:08:56.459Z,5.80
2023-03-02T14:12:06.600Z,6.30
2023-03-02T14:15:19.645Z,5.60
2023-03-02T14:18:38.809Z,5.80
2023-03-02T14:21:47.720Z,5.80
2023-03-02T14:24:56.245Z,6.40
2023-03-02T14:28:04.753Z,6.40
2023-03-02T14:31:14.513Z,6.10
2023-03-02T14:34:23.027Z,6.20
2023-03-02T14:37:32.663Z,7.10
2023-03-02T14:40:42.037Z,6.30
2023-03-02T14:43:50.999Z,5.90
2023-03-02T14:46:59.119Z,6.00
2023-03-02T14:50:07.693Z,5.50
2023-03-02T14:53:20.926Z,5.80
2023-03-02T14:56:29.716Z,5.90
2023-03-02T14:59:37.905Z,5.90
2023-03-02T15:02:46.233Z,6.00
2023-03-02T15:06:01.420Z,6.30
2023-03-02T15:09:12.345Z,5.90
2023-03-02T15:12:20.628Z,6.00
2023-03-02T15:15:29.411Z,6.20
2023-03-02T15:18:37.519Z,6.00
2023-03-02T15:21:46.622Z,6.50
2023-03-02T15:24:54.955Z,6.40
2023-03-02T15:28:02.944Z,5.90
2023-03-02T15:31:16.786Z,6.10
2023-03-02T15:34:25.076Z,6.20
2023-03-02T15:37:33.492Z,5.60
2023-03-02T15:40:44.488Z,7.10
2023-03-02T15:43:55.580Z,5.80
2023-03-02T15:47:04.658Z,5.90
2023-03-02T15:50:15.195Z,12.60
2023-03-02T15:53:23.254Z,6.50
2023-03-02T15:56:42.486Z,5.90
2023-03-02T15:59:51.806Z,6.30
2023-03-02T16:03:00.115Z,5.80
2023-03-02T16:06:10.008Z,5.90
2023-03-02T16:09:18.455Z,6.00
2023-03-02T16:12:29.057Z,5.60
2023-03-02T16:15:43.096Z,6.30
2023-03-02T16:18:57.900Z,10.60
2023-03-02T16:22:06.189Z,7.50
2023-03-02T16:25:14.783Z,6.60
2023-03-02T16:28:24.635Z,7.00
2023-03-02T16:31:37.667Z,6.30
2023-03-02T16:34:47.049Z,6.00
2023-03-02T16:37:55.214Z,6.40
2023-03-02T16:41:03.726Z,6.10
2023-03-02T16:44:13.580Z,6.60
2023-03-02T16:50:28.699Z,6.10
2023-03-02T16:53:37.016Z,5.40
2023-03-02T16:56:47.631Z,5.70
2023-03-02T16:59:57.324Z,6.70
2023-03-02T17:03:05.867Z,5.70
2023-03-02T17:06:17.986Z,6.30
2023-03-02T17:09:26.064Z,5.80
2023-03-02T17:12:34.253Z,7.10
2023-03-02T17:15:42.802Z,7.70
2023-03-02T17:18:50.643Z,7.20
2023-03-02T17:21:59.375Z,7.70
2023-03-02T17:25:09.229Z,8.80
2023-03-02T17:31:24.461Z,9.50
2023-03-02T17:34:32.759Z,9.90
2023-03-02T17:37:41.250Z,9.20
2023-03-02T17:40:49.650Z,9.60
2023-03-02T17:43:58.325Z,9.50
2023-03-02T17:47:08.426Z,10.70
2023-03-02T17:50:17.922Z,10.20
2023-03-02T17:53:25.982Z,9.70
2023-03-02T17:56:34.063Z,10.20
2023-03-02T17:59:42.350Z,9.60
2023-03-02T18:02:52.866Z,10.20
2023-03-02T18:06:01.175Z,10.50
2023-03-02T18:09:09.764Z,10.50
2023-03-02T18:12:18.357Z,10.70
2023-03-02T18:15:28.709Z,11.20
2023-03-02T18:18:37.160Z,10.10
2023-03-02T18:21:45.630Z,10.50
2023-03-02T18:24:53.634Z,10.90
2023-03-02T18:28:01.613Z,10.30
2023-03-02T18:31:11.371Z,10.20
2023-03-02T18:34:19.943Z,10.60
2023-03-02T18:37:28.344Z,10.50
2023-03-02T18:40:36.416Z,11.30
2023-03-02T18:43:45.580Z,12.70
2023-03-02T18:46:53.956Z,13.40
2023-03-02T18:50:01.969Z,13.20
2023-03-02T18:53:12.493Z,13.10
2023-03-02T18:56:22.945Z,11.40
2023-03-02T18:59:31.231Z,11.50
2023-03-02T19:02:39.850Z,11.80
2023-03-02T19:05:48.835Z,12.50
2023-03-02T19:08:56.890Z,12.50
2023-03-02T19:12:05.418Z,16.00
2023-03-02T19:15:15.827Z,13.90
2023-03-02T19:21:33.272Z,10.80
2023-03-02T19:24:43.358Z,12.90
2023-03-02T19:27:51.573Z,14.80
2023-03-02T19:31:03.263Z,14.50
2023-03-02T19:34:12.907Z,15.00
2023-03-02T19:37:20.563Z,14.50
2023-03-02T19:40:30.370Z,13.80
2023-03-02T19:43:38.567Z,13.30
2023-03-02T19:46:46.893Z,13.40
2023-03-02T19:49:55.389Z,13.70
2023-03-02T19:53:03.668Z,14.10
2023-03-02T19:56:15.824Z,14.20
2023-03-02T19:59:24.182Z,14.70
2023-03-02T20:02:34.028Z,13.80
2023-03-02T20:08:49.303Z,12.10
2023-03-02T20:11:58.750Z,13.90
2023-03-02T20:15:08.033Z,17.50
2023-03-02T20:18:19.955Z,18.90
2023-03-02T20:21:28.141Z,18.70
2023-03-02T20:24:36.063Z,19.10
2023-03-02T20:27:43.996Z,19.40
2023-03-02T20:30:57.411Z,18.30
2023-03-02T20:34:09.021Z,17.70
2023-03-02T20:37:18.794Z,17.20
2023-03-02T20:40:28.156Z,16.90
2023-03-02T20:43:36.778Z,15.00
2023-03-02T20:46:52.047Z,15.10
2023-03-02T20:50:00.500Z,15.20
2023-03-02T20:53:10.653Z,14.70
2023-03-02T20:56:19.320Z,13.60
2023-03-02T20:59:28.478Z,14.10
2023-03-02T21:02:36.268Z,13.80
2023-03-02T21:05:47.262Z,15.00
2023-03-02T21:08:55.946Z,15.10
2023-03-02T21:12:04.826Z,14.40
2023-03-02T21:15:14.336Z,15.10
2023-03-02T21:18:22.266Z,14.90
2023-03-02T21:21:41.147Z,14.80
2023-03-02T21:24:49.881Z,13.60
2023-03-02T21:27:58.313Z,14.30
2023-03-02T21:31:06.594Z,14.80
2023-03-02T21:34:15.792Z,13.00
2023-03-02T21:37:23.722Z,11.90
2023-03-02T21:40:40.737Z,12.90
2023-03-02T21:43:49.092Z,15.30
2023-03-02T21:46:57.072Z,14.00
2023-03-02T21:50:05.573Z,14.70
2023-03-02T21:53:14.360Z,12.30
2023-03-02T21:56:25.126Z,11.70
2023-03-02T21:59:32.851Z,12.10
2023-03-02T22:02:40.772Z,11.90
2023-03-02T22:05:48.904Z,13.00
2023-03-02T22:08:57.851Z,11.70
2023-03-02T22:12:12.994Z,12.70
2023-03-02T22:15:22.754Z,11.20
2023-03-02T22:21:45.100Z,11.90
2023-03-02T22:24:55.278Z,11.70
2023-03-02T22:28:02.943Z,11.50
2023-03-02T22:31:21.902Z,12.40
2023-03-02T22:34:32.519Z,12.00
2023-03-02T22:37:40.554Z,10.80
2023-03-02T22:40:48.454Z,12.60
2023-03-02T22:43:57.791Z,12.80
2023-03-02T22:47:14.016Z,12.60
2023-03-02T22:50:28.308Z,12.90
2023-03-02T22:53:44.205Z,11.90
2023-03-02T22:56:57.028Z,12.20
2023-03-02T23:00:39.088Z,13.20
2023-03-02T23:03:50.396Z,12.50
2023-03-02T23:07:00.750Z,12.70
2023-03-02T23:10:13.236Z,11.60
2023-03-02T23:13:26.939Z,12.00
2023-03-02T23:16:39.834Z,12.40
2023-03-02T23:19:48.203Z,12.30
2023-03-02T23:22:57.217Z,13.10
2023-03-02T23:26:05.283Z,12.50
2023-03-02T23:29:13.554Z,11.30
2023-03-02T23:32:22.390Z,11.70
2023-03-02T23:35:30.544Z,12.00
2023-03-02T23:38:39.303Z,11.70
2023-03-02T23:41:47.248Z,11.70
2023-03-02T23:44:55.832Z,12.80
2023-03-02T23:48:03.544Z,11.90
2023-03-02T23:51:12.219Z,12.10
2023-03-02T23:54:20.679Z,12.40
2023-03-02T23:57:28.654Z,12.10
